sensor_id;sensor_type;location;lat;lon;timestamp;P1;durP1;ratioP1;P2;durP2;ratioP2
40731;SDS011;26420;52.256;9.096;2024-02-26T00:01:00;3.38;;;2.00;;
40731;SDS011;26420;52.256;9.096;2024-02-26T00:06:03;3.30;;;1.67;;
40731;SDS011;26420;52.256;9.096;2024-02-26T00:11:05;2.60;;;1.48;;
40731;SDS011;26420;52.256;9.096;2024-02-26T00:16:07;2.58;;;1.75;;
40731;SDS011;26420;52.256;9.096;2024-02-26T00:21:08;1.95;;;1.38;;
40731;SDS011;26420;52.256;9.096;2024-02-26T00:26:10;1.75;;;1.50;;
40731;SDS011;26420;52.256;9.096;2024-02-26T00:31:12;1.60;;;1.17;;
40731;SDS011;26420;52.256;9.096;2024-02-26T00:36:14;1.92;;;1.52;;
40731;SDS011;26420;52.256;9.096;2024-02-26T00:41:19;3.25;;;1.60;;
40731;SDS011;26420;52.256;9.096;2024-02-26T00:46:21;3.15;;;1.90;;
40731;SDS011;26420;52.256;9.096;2024-02-26T00:51:23;1.52;;;1.42;;
40731;SDS011;26420;52.256;9.096;2024-02-26T00:56:26;1.88;;;1.52;;
40731;SDS011;26420;52.256;9.096;2024-02-26T01:01:28;3.42;;;1.88;;
40731;SDS011;26420;52.256;9.096;2024-02-26T01:06:30;2.00;;;1.70;;
40731;SDS011;26420;52.256;9.096;2024-02-26T01:11:32;3.85;;;1.80;;
40731;SDS011;26420;52.256;9.096;2024-02-26T01:16:34;2.38;;;1.80;;
40731;SDS011;26420;52.256;9.096;2024-02-26T01:21:36;1.63;;;1.52;;
40731;SDS011;26420;52.256;9.096;2024-02-26T01:26:38;1.75;;;1.63;;
40731;SDS011;26420;52.256;9.096;2024-02-26T01:31:40;2.67;;;1.98;;
40731;SDS011;26420;52.256;9.096;2024-02-26T01:36:42;3.00;;;1.60;;
40731;SDS011;26420;52.256;9.096;2024-02-26T01:41:43;2.03;;;1.75;;
40731;SDS011;26420;52.256;9.096;2024-02-26T01:46:45;2.70;;;2.13;;
40731;SDS011;26420;52.256;9.096;2024-02-26T01:51:47;4.72;;;2.13;;
40731;SDS011;26420;52.256;9.096;2024-02-26T01:56:49;2.00;;;1.90;;
40731;SDS011;26420;52.256;9.096;2024-02-26T02:01:53;1.53;;;1.43;;
40731;SDS011;26420;52.256;9.096;2024-02-26T02:06:58;2.00;;;1.70;;
40731;SDS011;26420;52.256;9.096;2024-02-26T02:12:02;2.55;;;1.60;;
40731;SDS011;26420;52.256;9.096;2024-02-26T02:23:53;3.10;;;1.80;;
40731;SDS011;26420;52.256;9.096;2024-02-26T02:28:54;1.50;;;1.40;;
40731;SDS011;26420;52.256;9.096;2024-02-26T02:33:56;2.50;;;1.83;;
40731;SDS011;26420;52.256;9.096;2024-02-26T02:38:59;1.97;;;1.60;;
40731;SDS011;26420;52.256;9.096;2024-02-26T02:44:01;1.53;;;1.43;;
40731;SDS011;26420;52.256;9.096;2024-02-26T02:49:03;2.97;;;1.40;;
40731;SDS011;26420;52.256;9.096;2024-02-26T02:54:05;2.27;;;1.50;;
40731;SDS011;26420;52.256;9.096;2024-02-26T02:59:07;2.73;;;1.60;;
40731;SDS011;26420;52.256;9.096;2024-02-26T03:04:09;1.33;;;1.20;;
40731;SDS011;26420;52.256;9.096;2024-02-26T03:09:10;1.65;;;1.30;;
40731;SDS011;26420;52.256;9.096;2024-02-26T03:14:12;2.78;;;1.63;;
40731;SDS011;26420;52.256;9.096;2024-02-26T03:19:14;3.17;;;1.77;;
40731;SDS011;26420;52.256;9.096;2024-02-26T03:24:19;1.38;;;1.27;;
40731;SDS011;26420;52.256;9.096;2024-02-26T03:29:21;1.50;;;1.40;;
40731;SDS011;26420;52.256;9.096;2024-02-26T03:34:23;3.40;;;1.70;;
40731;SDS011;26420;52.256;9.096;2024-02-26T03:39:25;1.85;;;1.75;;
40731;SDS011;26420;52.256;9.096;2024-02-26T03:44:27;2.60;;;1.42;;
40731;SDS011;26420;52.256;9.096;2024-02-26T03:49:29;2.25;;;1.60;;
40731;SDS011;26420;52.256;9.096;2024-02-26T03:54:34;10.40;;;1.90;;
40731;SDS011;26420;52.256;9.096;2024-02-26T03:59:35;1.70;;;1.60;;
40731;SDS011;26420;52.256;9.096;2024-02-26T04:04:37;2.13;;;1.92;;
40731;SDS011;26420;52.256;9.096;2024-02-26T04:09:39;1.92;;;1.83;;
40731;SDS011;26420;52.256;9.096;2024-02-26T04:14:41;2.53;;;1.70;;
40731;SDS011;26420;52.256;9.096;2024-02-26T04:19:43;2.47;;;1.80;;
40731;SDS011;26420;52.256;9.096;2024-02-26T04:24:44;2.17;;;1.98;;
40731;SDS011;26420;52.256;9.096;2024-02-26T04:29:46;3.47;;;2.03;;
40731;SDS011;26420;52.256;9.096;2024-02-26T04:34:48;2.40;;;2.08;;
40731;SDS011;26420;52.256;9.096;2024-02-26T04:39:49;4.65;;;2.28;;
40731;SDS011;26420;52.256;9.096;2024-02-26T04:44:51;2.15;;;1.90;;
40731;SDS011;26420;52.256;9.096;2024-02-26T04:49:53;5.32;;;2.10;;
40731;SDS011;26420;52.256;9.096;2024-02-26T04:54:55;2.85;;;2.05;;
40731;SDS011;26420;52.256;9.096;2024-02-26T04:59:57;2.38;;;2.05;;
40731;SDS011;26420;52.256;9.096;2024-02-26T05:04:58;4.05;;;2.42;;
40731;SDS011;26420;52.256;9.096;2024-02-26T05:10:01;3.10;;;2.40;;
40731;SDS011;26420;52.256;9.096;2024-02-26T05:15:02;4.32;;;2.20;;
40731;SDS011;26420;52.256;9.096;2024-02-26T05:20:05;3.63;;;2.35;;
40731;SDS011;26420;52.256;9.096;2024-02-26T05:25:09;4.55;;;2.67;;
40731;SDS011;26420;52.256;9.096;2024-02-26T05:30:11;4.45;;;2.72;;
40731;SDS011;26420;52.256;9.096;2024-02-26T05:35:13;3.55;;;2.95;;
40731;SDS011;26420;52.256;9.096;2024-02-26T05:40:16;5.85;;;3.67;;
40731;SDS011;26420;52.256;9.096;2024-02-26T05:45:18;7.20;;;3.95;;
40731;SDS011;26420;52.256;9.096;2024-02-26T05:50:20;5.38;;;3.65;;
40731;SDS011;26420;52.256;9.096;2024-02-26T05:55:22;5.72;;;3.35;;
40731;SDS011;26420;52.256;9.096;2024-02-26T06:00:23;5.53;;;3.65;;
40731;SDS011;26420;52.256;9.096;2024-02-26T06:05:25;4.30;;;3.00;;
40731;SDS011;26420;52.256;9.096;2024-02-26T06:10:27;6.45;;;3.80;;
40731;SDS011;26420;52.256;9.096;2024-02-26T06:15:29;3.88;;;3.35;;
40731;SDS011;26420;52.256;9.096;2024-02-26T06:20:31;3.70;;;3.22;;
40731;SDS011;26420;52.256;9.096;2024-02-26T06:25:33;4.95;;;3.45;;
40731;SDS011;26420;52.256;9.096;2024-02-26T06:30:35;3.90;;;3.28;;
40731;SDS011;26420;52.256;9.096;2024-02-26T06:35:37;3.95;;;3.05;;
40731;SDS011;26420;52.256;9.096;2024-02-26T06:40:39;4.63;;;3.60;;
40731;SDS011;26420;52.256;9.096;2024-02-26T06:45:41;6.05;;;3.90;;
40731;SDS011;26420;52.256;9.096;2024-02-26T06:50:43;5.13;;;3.70;;
40731;SDS011;26420;52.256;9.096;2024-02-26T06:55:45;6.95;;;3.67;;
40731;SDS011;26420;52.256;9.096;2024-02-26T07:00:46;10.43;;;3.90;;
40731;SDS011;26420;52.256;9.096;2024-02-26T07:05:49;4.18;;;3.60;;
40731;SDS011;26420;52.256;9.096;2024-02-26T07:10:51;4.13;;;3.42;;
40731;SDS011;26420;52.256;9.096;2024-02-26T07:15:53;3.83;;;3.17;;
40731;SDS011;26420;52.256;9.096;2024-02-26T07:20:55;6.28;;;3.42;;
40731;SDS011;26420;52.256;9.096;2024-02-26T07:25:57;3.70;;;3.15;;
40731;SDS011;26420;52.256;9.096;2024-02-26T07:31:00;5.40;;;2.90;;
40731;SDS011;26420;52.256;9.096;2024-02-26T07:36:02;4.85;;;3.20;;
40731;SDS011;26420;52.256;9.096;2024-02-26T07:41:05;3.15;;;2.80;;
40731;SDS011;26420;52.256;9.096;2024-02-26T07:46:06;5.15;;;2.83;;
40731;SDS011;26420;52.256;9.096;2024-02-26T07:51:09;3.17;;;2.20;;
40731;SDS011;26420;52.256;9.096;2024-02-26T07:56:13;3.08;;;2.10;;
40731;SDS011;26420;52.256;9.096;2024-02-26T08:01:14;4.20;;;3.25;;
40731;SDS011;26420;52.256;9.096;2024-02-26T08:06:16;3.78;;;2.53;;
40731;SDS011;26420;52.256;9.096;2024-02-26T08:11:18;3.60;;;2.30;;
40731;SDS011;26420;52.256;9.096;2024-02-26T08:16:20;3.97;;;2.80;;
40731;SDS011;26420;52.256;9.096;2024-02-26T08:21:22;4.05;;;2.90;;
40731;SDS011;26420;52.256;9.096;2024-02-26T08:26:24;4.18;;;2.60;;
40731;SDS011;26420;52.256;9.096;2024-02-26T08:31:26;7.05;;;2.78;;
40731;SDS011;26420;52.256;9.096;2024-02-26T08:36:29;4.35;;;3.28;;
40731;SDS011;26420;52.256;9.096;2024-02-26T08:41:32;4.32;;;2.90;;
40731;SDS011;26420;52.256;9.096;2024-02-26T08:46:34;3.72;;;2.78;;
40731;SDS011;26420;52.256;9.096;2024-02-26T08:51:40;5.28;;;2.72;;
40731;SDS011;26420;52.256;9.096;2024-02-26T08:56:46;4.20;;;3.40;;
40731;SDS011;26420;52.256;9.096;2024-02-26T09:01:48;5.90;;;3.20;;
40731;SDS011;26420;52.256;9.096;2024-02-26T09:06:50;7.18;;;3.40;;
40731;SDS011;26420;52.256;9.096;2024-02-26T09:11:52;4.10;;;2.80;;
40731;SDS011;26420;52.256;9.096;2024-02-26T09:16:54;4.07;;;2.65;;
40731;SDS011;26420;52.256;9.096;2024-02-26T09:21:58;4.38;;;2.90;;
40731;SDS011;26420;52.256;9.096;2024-02-26T09:27:00;3.58;;;2.50;;
40731;SDS011;26420;52.256;9.096;2024-02-26T09:32:02;3.08;;;2.15;;
40731;SDS011;26420;52.256;9.096;2024-02-26T09:37:04;5.68;;;2.55;;
40731;SDS011;26420;52.256;9.096;2024-02-26T09:42:19;3.63;;;2.63;;
40731;SDS011;26420;52.256;9.096;2024-02-26T09:47:21;3.40;;;2.65;;
40731;SDS011;26420;52.256;9.096;2024-02-26T09:52:24;3.55;;;2.05;;
40731;SDS011;26420;52.256;9.096;2024-02-26T09:57:29;2.97;;;2.03;;
40731;SDS011;26420;52.256;9.096;2024-02-26T10:02:33;5.50;;;2.20;;
40731;SDS011;26420;52.256;9.096;2024-02-26T10:07:44;3.85;;;2.10;;
40731;SDS011;26420;52.256;9.096;2024-02-26T10:12:46;6.88;;;2.25;;
40731;SDS011;26420;52.256;9.096;2024-02-26T10:17:48;2.65;;;2.17;;
40731;SDS011;26420;52.256;9.096;2024-02-26T10:22:50;3.22;;;2.47;;
40731;SDS011;26420;52.256;9.096;2024-02-26T10:27:54;4.20;;;2.47;;
40731;SDS011;26420;52.256;9.096;2024-02-26T10:32:57;2.97;;;2.47;;
40731;SDS011;26420;52.256;9.096;2024-02-26T10:38:00;2.72;;;2.13;;
40731;SDS011;26420;52.256;9.096;2024-02-26T10:43:08;2.40;;;1.95;;
40731;SDS011;26420;52.256;9.096;2024-02-26T10:48:13;5.32;;;2.55;;
40731;SDS011;26420;52.256;9.096;2024-02-26T10:53:22;4.03;;;2.28;;
40731;SDS011;26420;52.256;9.096;2024-02-26T10:58:24;3.13;;;2.55;;
40731;SDS011;26420;52.256;9.096;2024-02-26T11:03:28;3.95;;;2.45;;
40731;SDS011;26420;52.256;9.096;2024-02-26T11:08:33;3.70;;;2.35;;
40731;SDS011;26420;52.256;9.096;2024-02-26T11:13:36;2.20;;;2.00;;
40731;SDS011;26420;52.256;9.096;2024-02-26T11:18:46;57.85;;;40.17;;
40731;SDS011;26420;52.256;9.096;2024-02-26T11:23:52;26.38;;;15.25;;
40731;SDS011;26420;52.256;9.096;2024-02-26T11:28:55;101.28;;;52.22;;
40731;SDS011;26420;52.256;9.096;2024-02-26T11:33:57;115.90;;;71.85;;
40731;SDS011;26420;52.256;9.096;2024-02-26T11:39:00;53.67;;;28.23;;
40731;SDS011;26420;52.256;9.096;2024-02-26T11:44:02;18.52;;;11.00;;
40731;SDS011;26420;52.256;9.096;2024-02-26T11:49:29;20.67;;;11.82;;
40731;SDS011;26420;52.256;9.096;2024-02-26T11:54:46;30.20;;;14.07;;
40731;SDS011;26420;52.256;9.096;2024-02-26T11:59:55;23.35;;;14.40;;
40731;SDS011;26420;52.256;9.096;2024-02-26T12:04:57;8.35;;;4.93;;
40731;SDS011;26420;52.256;9.096;2024-02-26T12:15:32;4.80;;;3.70;;
40731;SDS011;26420;52.256;9.096;2024-02-26T12:20:35;4.18;;;3.50;;
40731;SDS011;26420;52.256;9.096;2024-02-26T12:25:38;11.65;;;7.78;;
40731;SDS011;26420;52.256;9.096;2024-02-26T12:30:40;4.53;;;3.38;;
40731;SDS011;26420;52.256;9.096;2024-02-26T12:35:43;3.03;;;2.50;;
40731;SDS011;26420;52.256;9.096;2024-02-26T12:40:49;2.17;;;1.98;;
40731;SDS011;26420;52.256;9.096;2024-02-26T12:45:52;2.22;;;2.00;;
40731;SDS011;26420;52.256;9.096;2024-02-26T12:50:54;3.58;;;1.85;;
40731;SDS011;26420;52.256;9.096;2024-02-26T12:55:56;2.97;;;2.55;;
40731;SDS011;26420;52.256;9.096;2024-02-26T13:00:58;2.25;;;1.65;;
40731;SDS011;26420;52.256;9.096;2024-02-26T13:06:00;18.02;;;10.40;;
40731;SDS011;26420;52.256;9.096;2024-02-26T13:11:03;24.63;;;10.07;;
40731;SDS011;26420;52.256;9.096;2024-02-26T13:16:07;8.65;;;4.20;;
40731;SDS011;26420;52.256;9.096;2024-02-26T13:21:15;8.02;;;7.03;;
40731;SDS011;26420;52.256;9.096;2024-02-26T13:26:21;5.13;;;4.38;;
40731;SDS011;26420;52.256;9.096;2024-02-26T13:31:24;4.00;;;2.50;;
40731;SDS011;26420;52.256;9.096;2024-02-26T13:36:26;7.20;;;6.57;;
40731;SDS011;26420;52.256;9.096;2024-02-26T13:41:34;3.33;;;3.00;;
40731;SDS011;26420;52.256;9.096;2024-02-26T13:51:38;2.45;;;1.65;;
40731;SDS011;26420;52.256;9.096;2024-02-26T13:56:41;2.03;;;1.83;;
40731;SDS011;26420;52.256;9.096;2024-02-26T14:01:46;2.00;;;1.90;;
40731;SDS011;26420;52.256;9.096;2024-02-26T14:06:48;2.22;;;1.73;;
40731;SDS011;26420;52.256;9.096;2024-02-26T14:11:50;2.25;;;1.38;;
40731;SDS011;26420;52.256;9.096;2024-02-26T14:16:52;2.10;;;1.77;;
40731;SDS011;26420;52.256;9.096;2024-02-26T14:22:19;1.70;;;1.60;;
40731;SDS011;26420;52.256;9.096;2024-02-26T14:27:21;7.35;;;6.15;;
40731;SDS011;26420;52.256;9.096;2024-02-26T14:32:23;3.85;;;3.00;;
40731;SDS011;26420;52.256;9.096;2024-02-26T14:37:25;4.32;;;1.92;;
40731;SDS011;26420;52.256;9.096;2024-02-26T14:42:27;1.48;;;1.27;;
40731;SDS011;26420;52.256;9.096;2024-02-26T14:47:30;2.35;;;1.55;;
40731;SDS011;26420;52.256;9.096;2024-02-26T14:52:31;1.60;;;1.05;;
40731;SDS011;26420;52.256;9.096;2024-02-26T14:57:33;0.80;;;0.80;;
40731;SDS011;26420;52.256;9.096;2024-02-26T15:02:35;2.05;;;1.45;;
40731;SDS011;26420;52.256;9.096;2024-02-26T15:07:37;4.55;;;1.50;;
40731;SDS011;26420;52.256;9.096;2024-02-26T15:12:41;2.58;;;1.02;;
40731;SDS011;26420;52.256;9.096;2024-02-26T15:17:43;1.52;;;1.33;;
40731;SDS011;26420;52.256;9.096;2024-02-26T15:22:45;1.35;;;1.17;;
40731;SDS011;26420;52.256;9.096;2024-02-26T15:27:48;1.20;;;1.10;;
40731;SDS011;26420;52.256;9.096;2024-02-26T15:32:50;3.33;;;2.40;;
40731;SDS011;26420;52.256;9.096;2024-02-26T15:37:55;1.52;;;1.42;;
40731;SDS011;26420;52.256;9.096;2024-02-26T15:42:56;1.80;;;1.17;;
40731;SDS011;26420;52.256;9.096;2024-02-26T15:47:58;1.70;;;1.20;;
40731;SDS011;26420;52.256;9.096;2024-02-26T15:53:00;1.02;;;1.02;;
40731;SDS011;26420;52.256;9.096;2024-02-26T15:58:02;0.88;;;0.88;;
40731;SDS011;26420;52.256;9.096;2024-02-26T16:03:04;1.05;;;0.95;;
40731;SDS011;26420;52.256;9.096;2024-02-26T16:08:07;28.38;;;17.17;;
40731;SDS011;26420;52.256;9.096;2024-02-26T16:13:21;15.30;;;11.38;;
40731;SDS011;26420;52.256;9.096;2024-02-26T16:18:23;8.18;;;5.95;;
40731;SDS011;26420;52.256;9.096;2024-02-26T16:23:25;3.30;;;2.92;;
40731;SDS011;26420;52.256;9.096;2024-02-26T16:28:27;3.63;;;2.35;;
40731;SDS011;26420;52.256;9.096;2024-02-26T16:33:28;9.88;;;8.88;;
40731;SDS011;26420;52.256;9.096;2024-02-26T16:38:30;5.30;;;3.05;;
40731;SDS011;26420;52.256;9.096;2024-02-26T16:43:32;2.33;;;2.03;;
40731;SDS011;26420;52.256;9.096;2024-02-26T16:48:36;1.88;;;1.70;;
40731;SDS011;26420;52.256;9.096;2024-02-26T16:53:38;2.67;;;2.40;;
40731;SDS011;26420;52.256;9.096;2024-02-26T16:58:40;3.50;;;3.20;;
40731;SDS011;26420;52.256;9.096;2024-02-26T17:03:42;2.78;;;2.25;;
40731;SDS011;26420;52.256;9.096;2024-02-26T17:08:43;4.05;;;2.00;;
40731;SDS011;26420;52.256;9.096;2024-02-26T17:13:45;1.50;;;1.35;;
40731;SDS011;26420;52.256;9.096;2024-02-26T17:18:47;3.42;;;2.50;;
40731;SDS011;26420;52.256;9.096;2024-02-26T17:23:50;1.73;;;1.63;;
40731;SDS011;26420;52.256;9.096;2024-02-26T17:28:52;8.02;;;6.03;;
40731;SDS011;26420;52.256;9.096;2024-02-26T17:33:55;3.92;;;2.45;;
40731;SDS011;26420;52.256;9.096;2024-02-26T17:38:59;2.35;;;1.20;;
40731;SDS011;26420;52.256;9.096;2024-02-26T17:44:01;4.80;;;2.70;;
40731;SDS011;26420;52.256;9.096;2024-02-26T17:49:03;77.45;;;33.03;;
40731;SDS011;26420;52.256;9.096;2024-02-26T17:54:06;24.40;;;8.52;;
40731;SDS011;26420;52.256;9.096;2024-02-26T17:59:09;3.10;;;2.38;;
40731;SDS011;26420;52.256;9.096;2024-02-26T18:04:10;4.22;;;2.83;;
40731;SDS011;26420;52.256;9.096;2024-02-26T18:09:13;6.63;;;3.92;;
40731;SDS011;26420;52.256;9.096;2024-02-26T18:14:16;2.08;;;1.90;;
40731;SDS011;26420;52.256;9.096;2024-02-26T18:19:18;2.80;;;2.13;;
40731;SDS011;26420;52.256;9.096;2024-02-26T18:24:20;3.72;;;2.22;;
40731;SDS011;26420;52.256;9.096;2024-02-26T18:29:22;3.58;;;2.47;;
40731;SDS011;26420;52.256;9.096;2024-02-26T18:34:24;2.10;;;1.90;;
40731;SDS011;26420;52.256;9.096;2024-02-26T18:39:26;1.40;;;1.25;;
40731;SDS011;26420;52.256;9.096;2024-02-26T18:44:28;2.95;;;2.08;;
40731;SDS011;26420;52.256;9.096;2024-02-26T18:49:29;2.80;;;2.50;;
40731;SDS011;26420;52.256;9.096;2024-02-26T18:54:33;1.95;;;1.73;;
40731;SDS011;26420;52.256;9.096;2024-02-26T18:59:38;6.50;;;2.67;;
40731;SDS011;26420;52.256;9.096;2024-02-26T19:04:40;2.88;;;1.70;;
40731;SDS011;26420;52.256;9.096;2024-02-26T19:09:42;1.48;;;1.27;;
40731;SDS011;26420;52.256;9.096;2024-02-26T19:14:43;1.98;;;1.88;;
40731;SDS011;26420;52.256;9.096;2024-02-26T19:19:46;1.80;;;1.70;;
40731;SDS011;26420;52.256;9.096;2024-02-26T19:24:47;1.60;;;1.50;;
40731;SDS011;26420;52.256;9.096;2024-02-26T19:29:49;1.73;;;1.60;;
40731;SDS011;26420;52.256;9.096;2024-02-26T19:34:51;1.67;;;1.58;;
40731;SDS011;26420;52.256;9.096;2024-02-26T19:39:53;1.27;;;1.17;;
40731;SDS011;26420;52.256;9.096;2024-02-26T19:44:59;1.55;;;1.40;;
40731;SDS011;26420;52.256;9.096;2024-02-26T19:50:02;1.67;;;1.50;;
40731;SDS011;26420;52.256;9.096;2024-02-26T19:55:05;1.70;;;1.50;;
40731;SDS011;26420;52.256;9.096;2024-02-26T20:00:08;2.53;;;1.58;;
40731;SDS011;26420;52.256;9.096;2024-02-26T20:05:13;5.97;;;1.80;;
40731;SDS011;26420;52.256;9.096;2024-02-26T20:10:15;2.17;;;1.67;;
40731;SDS011;26420;52.256;9.096;2024-02-26T20:15:17;2.65;;;1.63;;
40731;SDS011;26420;52.256;9.096;2024-02-26T20:20:19;2.15;;;1.70;;
40731;SDS011;26420;52.256;9.096;2024-02-26T20:25:21;3.58;;;2.65;;
40731;SDS011;26420;52.256;9.096;2024-02-26T20:30:23;3.70;;;2.58;;
40731;SDS011;26420;52.256;9.096;2024-02-26T20:35:27;3.92;;;2.55;;
40731;SDS011;26420;52.256;9.096;2024-02-26T20:40:29;4.10;;;3.05;;
40731;SDS011;26420;52.256;9.096;2024-02-26T20:45:30;4.68;;;2.95;;
40731;SDS011;26420;52.256;9.096;2024-02-26T20:50:32;5.53;;;3.42;;
40731;SDS011;26420;52.256;9.096;2024-02-26T20:55:36;6.22;;;3.72;;
40731;SDS011;26420;52.256;9.096;2024-02-26T21:00:41;5.57;;;3.70;;
40731;SDS011;26420;52.256;9.096;2024-02-26T21:05:44;8.25;;;5.93;;
40731;SDS011;26420;52.256;9.096;2024-02-26T21:10:46;6.03;;;4.85;;
40731;SDS011;26420;52.256;9.096;2024-02-26T21:15:50;8.65;;;4.63;;
40731;SDS011;26420;52.256;9.096;2024-02-26T21:20:52;9.52;;;4.90;;
40731;SDS011;26420;52.256;9.096;2024-02-26T21:25:55;8.75;;;4.85;;
40731;SDS011;26420;52.256;9.096;2024-02-26T21:30:57;10.23;;;5.57;;
40731;SDS011;26420;52.256;9.096;2024-02-26T21:35:59;7.25;;;4.68;;
40731;SDS011;26420;52.256;9.096;2024-02-26T21:41:02;6.57;;;4.55;;
40731;SDS011;26420;52.256;9.096;2024-02-26T21:46:06;8.18;;;5.18;;
40731;SDS011;26420;52.256;9.096;2024-02-26T21:51:08;8.55;;;4.78;;
40731;SDS011;26420;52.256;9.096;2024-02-26T21:56:10;10.18;;;5.07;;
40731;SDS011;26420;52.256;9.096;2024-02-26T22:01:12;6.85;;;4.68;;
40731;SDS011;26420;52.256;9.096;2024-02-26T22:06:13;14.65;;;6.93;;
40731;SDS011;26420;52.256;9.096;2024-02-26T22:11:15;14.77;;;6.47;;
40731;SDS011;26420;52.256;9.096;2024-02-26T22:16:18;10.90;;;5.65;;
40731;SDS011;26420;52.256;9.096;2024-02-26T22:21:20;9.20;;;5.45;;
40731;SDS011;26420;52.256;9.096;2024-02-26T22:26:22;14.38;;;8.48;;
40731;SDS011;26420;52.256;9.096;2024-02-26T22:31:24;10.95;;;6.82;;
40731;SDS011;26420;52.256;9.096;2024-02-26T22:36:27;14.90;;;6.72;;
40731;SDS011;26420;52.256;9.096;2024-02-26T22:41:29;13.30;;;6.75;;
40731;SDS011;26420;52.256;9.096;2024-02-26T22:46:31;11.25;;;6.28;;
40731;SDS011;26420;52.256;9.096;2024-02-26T22:51:32;10.90;;;6.38;;
40731;SDS011;26420;52.256;9.096;2024-02-26T22:56:35;12.18;;;6.60;;
40731;SDS011;26420;52.256;9.096;2024-02-26T23:01:36;14.45;;;7.93;;
40731;SDS011;26420;52.256;9.096;2024-02-26T23:06:39;15.25;;;8.07;;
40731;SDS011;26420;52.256;9.096;2024-02-26T23:11:41;11.80;;;6.55;;
40731;SDS011;26420;52.256;9.096;2024-02-26T23:16:42;9.55;;;6.20;;
40731;SDS011;26420;52.256;9.096;2024-02-26T23:21:46;10.27;;;5.95;;
40731;SDS011;26420;52.256;9.096;2024-02-26T23:26:48;11.25;;;5.53;;
40731;SDS011;26420;52.256;9.096;2024-02-26T23:31:50;11.80;;;6.50;;
40731;SDS011;26420;52.256;9.096;2024-02-26T23:36:51;10.75;;;6.53;;
40731;SDS011;26420;52.256;9.096;2024-02-26T23:41:53;11.23;;;5.82;;
40731;SDS011;26420;52.256;9.096;2024-02-26T23:46:55;9.38;;;5.88;;
40731;SDS011;26420;52.256;9.096;2024-02-26T23:51:57;9.02;;;6.13;;
40731;SDS011;26420;52.256;9.096;2024-02-26T23:56:59;10.93;;;6.05;;
